Time;durP1;ratioP1;P1;durP2;ratioP2;P2;SDS_P1;SDS_P2;PMS_P1;PMS_P2;Temp;Humidity;BMP_temperature;BMP_pressure;BME280_temperature;BME280_humidity;BME280_pressure;Samples;Min_cycle;Max_cycle;Signal;HPM_P1;HPM_P2
2021/12/14 00:01:55;;;;;;;9.55;5.90;;;;;;;3.35;100.00;101286.91;4991485;28;20030;-66
2021/12/14 00:04:27;;;;;;;12.55;6.50;;;;;;;3.36;100.00;101293.97;4992155;28;20022;-66
2021/12/14 00:06:54;;;;;;;11.30;5.80;;;;;;;3.35;100.00;101294.78;4981767;28;20495;-66
2021/12/14 00:09:29;;;;;;;10.80;5.80;;;;;;;3.42;100.00;101296.69;4992311;28;20053;-66
2021/12/14 00:17:17;;;;;;;9.48;5.05;;;;;;;3.57;100.00;101297.81;4971709;28;20019;-66
2021/12/14 00:19:44;;;;;;;13.13;6.53;;;;;;;3.61;100.00;101290.84;4972334;28;20023;-66
2021/12/14 00:22:27;;;;;;;10.02;5.45;;;;;;;3.66;100.00;101300.59;4983662;28;20707;-66
2021/12/14 00:24:54;;;;;;;8.73;5.63;;;;;;;3.47;100.00;101303.78;4971412;28;20023;-66
2021/12/14 00:27:22;;;;;;;9.45;5.03;;;;;;;3.39;100.00;101300.16;4974373;28;20035;-66
2021/12/14 00:29:53;;;;;;;9.05;5.70;;;;;;;3.39;100.00;101307.16;4977014;28;20062;-66
2021/12/14 00:32:21;;;;;;;9.40;6.03;;;;;;;3.47;100.00;101302.91;4972975;28;20077;-66
2021/12/14 00:34:49;;;;;;;10.43;5.95;;;;;;;3.53;100.00;101306.50;4972995;28;20066;-66
2021/12/14 00:37:37;;;;;;;12.38;6.88;;;;;;;3.96;100.00;101306.31;4979617;28;20018;-65
2021/12/14 00:40:11;;;;;;;11.25;6.45;;;;;;;4.19;100.00;101306.63;4991054;28;20406;-66
2021/12/14 00:42:37;;;;;;;10.98;6.03;;;;;;;4.33;100.00;101293.66;4988251;28;20483;-66
2021/12/14 00:45:03;;;;;;;11.48;6.32;;;;;;;4.31;100.00;101296.25;4976803;28;20029;-66
2021/12/14 00:47:29;;;;;;;10.43;6.72;;;;;;;4.35;100.00;101308.59;4971768;28;20029;-66
2021/12/14 00:49:55;;;;;;;14.90;6.95;;;;;;;4.31;100.00;101296.25;4972541;28;20030;-66
2021/12/14 00:52:21;;;;;;;11.73;5.97;;;;;;;4.42;100.00;101299.91;4978362;28;20025;-65
2021/12/14 00:54:47;;;;;;;13.13;6.85;;;;;;;4.46;100.00;101311.38;4978999;28;20046;-65
2021/12/14 00:57:12;;;;;;;12.32;6.90;;;;;;;4.42;100.00;101299.91;4991818;28;20502;-65
2021/12/14 00:59:38;;;;;;;11.07;6.53;;;;;;;4.41;100.00;101292.88;4979597;28;20088;-65
2021/12/14 01:02:10;;;;;;;11.20;7.22;;;;;;;4.59;100.00;101315.91;4971659;28;20506;-65
2021/12/14 01:04:40;;;;;;;11.55;6.82;;;;;;;4.67;100.00;101312.53;4996243;28;20026;-65
2021/12/14 01:07:08;;;;;;;12.00;6.90;;;;;;;4.67;100.00;101307.25;5010856;28;20385;-65
2021/12/14 01:09:37;;;;;;;12.77;6.32;;;;;;;4.74;100.00;101311.72;5011136;28;20021;-65
2021/12/14 01:12:10;;;;;;;15.32;7.45;;;;;;;4.76;100.00;101317.88;5002204;28;20053;-66
2021/12/14 01:14:47;;;;;;;12.15;5.72;;;;;;;4.70;100.00;101311.66;4985678;28;20053;-66
2021/12/14 01:17:28;;;;;;;16.52;6.68;;;;;;;4.81;100.00;101310.91;4989502;28;20034;-66
2021/12/14 01:20:00;;;;;;;10.15;6.10;;;;;;;4.88;100.00;101301.31;4985789;28;20025;-65
2021/12/14 01:25:10;;;;;;;16.30;7.57;;;;;;;4.57;100.00;101305.38;4990873;28;20506;-66
2021/12/14 01:27:53;;;;;;;14.10;8.43;;;;;;;4.93;100.00;101316.31;4993106;28;20043;-66
2021/12/14 01:30:27;;;;;;;18.27;10.27;;;;;;;5.07;100.00;101312.06;4980180;28;20562;-66
2021/12/14 01:32:55;;;;;;;24.60;10.57;;;;;;;5.12;100.00;101312.13;4975520;28;20027;-66
2021/12/14 01:35:27;;;;;;;20.48;11.07;;;;;;;5.16;100.00;101308.66;4984383;28;20038;-65
2021/12/14 01:38:47;;;;;;;16.23;8.43;;;;;;;5.17;100.00;101313.94;4984858;28;20038;-66
2021/12/14 01:40:53;;;;;;;14.15;7.80;;;;;;;5.18;100.00;101309.56;4984634;28;20078;-66
2021/12/14 01:43:23;;;;;;;13.82;7.97;;;;;;;5.20;100.00;101316.63;4995068;28;20034;-66
2021/12/14 01:45:48;;;;;;;12.93;6.78;;;;;;;5.14;100.00;101316.53;4995394;28;20034;-66
2021/12/14 01:48:14;;;;;;;14.70;6.93;;;;;;;5.19;100.00;101313.94;4997724;28;20018;-66
2021/12/14 01:50:52;;;;;;;11.52;6.05;;;;;;;5.23;100.00;101311.38;4991306;28;20077;-66
2021/12/14 01:53:20;;;;;;;14.00;6.82;;;;;;;5.18;100.00;101305.16;4994796;28;20064;-66
2021/12/14 01:55:50;;;;;;;11.32;6.88;;;;;;;5.27;100.00;101307.88;4994726;28;20037;-66
2021/12/14 01:58:16;;;;;;;11.60;7.40;;;;;;;5.39;100.00;101308.00;4984580;28;20029;-66
2021/12/14 02:00:47;;;;;;;9.95;5.82;;;;;;;5.43;100.00;101298.34;4994501;28;20042;-66
2021/12/14 02:03:15;;;;;;;11.80;6.82;;;;;;;5.55;100.00;101308.13;4994508;28;20049;-66
2021/12/14 02:05:44;;;;;;;13.82;7.18;;;;;;;5.55;100.00;101305.50;4992994;28;20062;-66
2021/12/14 02:08:32;;;;;;;13.00;7.53;;;;;;;5.61;100.00;101297.63;4986682;28;20105;-66
2021/12/14 02:11:00;;;;;;;10.60;6.80;;;;;;;5.56;100.00;101294.06;4974251;28;20105;-66
2021/12/14 02:13:30;;;;;;;9.60;6.18;;;;;;;5.59;100.00;101288.78;4977691;28;20022;-66
2021/12/14 02:15:57;;;;;;;12.35;6.38;;;;;;;5.55;100.00;101284.38;4981628;28;20046;-66
2021/12/14 02:18:24;;;;;;;10.25;6.03;;;;;;;5.59;100.00;101283.50;4977144;28;20030;-66
2021/12/14 02:20:54;;;;;;;11.20;6.35;;;;;;;5.60;100.00;101288.81;4991692;28;20572;-66
2021/12/14 02:23:21;;;;;;;11.30;6.63;;;;;;;5.60;100.00;101283.53;4992125;28;20026;-66
2021/12/14 02:25:48;;;;;;;11.70;5.78;;;;;;;5.51;100.00;101277.28;4986971;28;20026;-66
2021/12/14 02:28:17;;;;;;;11.85;6.38;;;;;;;5.63;100.00;101285.31;4974101;28;20073;-66
2021/12/14 02:30:44;;;;;;;10.05;5.78;;;;;;;5.61;100.00;101294.97;4980962;28;20049;-65
2021/12/14 02:33:22;;;;;;;10.43;6.28;;;;;;;5.60;100.00;101290.56;4981024;28;20422;-65
2021/12/14 02:35:48;;;;;;;12.57;7.30;;;;;;;5.71;100.00;101299.44;4977731;28;20041;-65
2021/12/14 02:38:17;;;;;;;10.98;6.57;;;;;;;5.70;100.00;101287.13;4979769;28;20027;-66
2021/12/14 02:41:01;;;;;;;10.55;6.25;;;;;;;5.73;100.00;101297.72;4978620;28;20046;-66
2021/12/14 02:43:33;;;;;;;11.75;6.38;;;;;;;5.80;100.00;101288.97;4974614;28;20038;-66
2021/12/14 02:46:28;;;;;;;12.40;6.60;;;;;;;5.83;100.00;101281.09;4985749;28;20082;-66
2021/12/14 02:48:59;;;;;;;11.02;6.75;;;;;;;5.86;100.00;101279.38;5007900;28;20541;-66
2021/12/14 02:51:33;;;;;;;10.05;7.35;;;;;;;5.90;100.00;101285.53;4982226;28;20105;-66
2021/12/14 02:54:05;;;;;;;11.98;6.53;;;;;;;5.95;100.00;101297.91;4980031;28;20023;-66
2021/12/14 02:56:34;;;;;;;10.57;5.95;;;;;;;5.97;100.00;101303.19;4973317;28;20513;-65
2021/12/14 02:59:09;;;;;;;9.95;5.57;;;;;;;5.96;100.00;101310.25;4982744;28;20019;-66
2021/12/14 03:01:36;;;;;;;13.45;7.30;;;;;;;5.94;100.00;101313.72;4993262;28;20451;-66
2021/12/14 03:04:04;;;;;;;12.38;6.93;;;;;;;5.92;100.00;101310.19;4988321;28;20061;-66
2021/12/14 03:06:35;;;;;;;14.35;7.72;;;;;;;5.88;100.00;101304.00;4988384;28;20026;-66
2021/12/14 03:09:16;;;;;;;10.82;7.20;;;;;;;5.94;100.00;101289.97;4992784;28;20041;-66
2021/12/14 03:11:42;;;;;;;12.68;6.72;;;;;;;6.02;100.00;101312.91;4984795;28;20072;-66
2021/12/14 03:14:09;;;;;;;9.43;6.07;;;;;;;6.01;100.00;101326.13;4992644;28;20046;-66
2021/12/14 03:16:36;;;;;;;11.65;6.55;;;;;;;6.01;100.00;101328.75;4989728;28;20044;-66
2021/12/14 03:19:06;;;;;;;11.65;5.95;;;;;;;6.05;100.00;101333.16;4981807;28;20139;-66
2021/12/14 03:21:36;;;;;;;9.77;6.20;;;;;;;6.04;100.00;101348.16;4992023;28;20041;-66
2021/12/14 03:24:11;;;;;;;13.27;6.60;;;;;;;5.98;100.00;101342.81;4987860;28;20052;-66
2021/12/14 03:26:41;;;;;;;12.70;7.00;;;;;;;5.96;100.00;101336.66;4989460;28;20037;-66
2021/12/14 03:29:10;;;;;;;11.30;6.32;;;;;;;6.04;100.00;101341.97;4992371;28;20022;-65
2021/12/14 03:31:42;;;;;;;13.93;7.75;;;;;;;6.11;100.00;101333.22;4993106;28;20026;-66
2021/12/14 03:34:14;;;;;;;14.68;8.70;;;;;;;6.17;100.00;101327.97;4983310;28;20081;-66
2021/12/14 03:37:08;;;;;;;13.13;6.75;;;;;;;6.27;100.00;101325.41;4992447;28;20102;-66
2021/12/14 03:39:40;;;;;;;11.77;7.30;;;;;;;6.15;100.00;101304.19;4991964;28;20516;-66
2021/12/14 03:42:11;;;;;;;14.80;7.03;;;;;;;6.21;100.00;101298.06;4981983;28;20548;-66
2021/12/14 03:44:44;;;;;;;13.90;6.28;;;;;;;6.15;100.00;101311.22;4990434;28;20088;-65
2021/12/14 03:47:15;;;;;;;;;;;;;;;6.06;100.00;101324.38;4975325;28;20035;-65
2021/12/14 03:49:48;;;;;;;14.57;5.95;;;;;;;6.02;100.00;101322.59;4984643;28;19993;-66
2021/12/14 03:52:21;;;;;;;8.55;5.45;;;;;;;5.93;100.00;101331.31;4982781;28;20584;-66
2021/12/14 03:54:48;;;;;;;16.52;7.93;;;;;;;5.83;100.00;101318.06;4981685;28;20026;-66
2021/12/14 03:57:14;;;;;;;10.95;6.82;;;;;;;5.89;100.00;101311.06;4991520;28;20085;-65
2021/12/14 03:59:41;;;;;;;14.15;6.80;;;;;;;5.95;100.00;101312.84;4982588;28;20039;-66
2021/12/14 04:02:10;;;;;;;11.75;7.28;;;;;;;5.95;100.00;101305.81;4992393;28;20441;-65
2021/12/14 04:04:41;;;;;;;21.25;7.43;;;;;;;5.96;100.00;101302.31;4990033;28;20023;-65
2021/12/14 04:07:10;;;;;;;16.80;8.25;;;;;;;6.00;100.00;101304.09;4984795;28;20474;-66
2021/12/14 04:09:37;;;;;;;13.35;6.80;;;;;;;6.08;100.00;101294.44;4991730;28;20474;-66
2021/12/14 04:12:07;;;;;;;19.98;6.45;;;;;;;6.01;100.00;101290.00;4992635;28;20026;-66
2021/12/14 04:14:38;;;;;;;17.27;7.15;;;;;;;6.03;100.00;101295.31;4985191;28;20078;-66
2021/12/14 04:17:03;;;;;;;18.70;7.22;;;;;;;5.98;100.00;101297.91;4990003;28;20029;-66
2021/12/14 04:19:31;;;;;;;20.27;9.07;;;;;;;5.97;100.00;101297.91;4989728;28;20487;-66
2021/12/14 04:22:02;;;;;;;25.38;10.13;;;;;;;6.01;100.00;101294.41;4978190;28;20034;-65
2021/12/14 04:24:32;;;;;;;26.52;12.23;;;;;;;6.01;100.00;101294.41;4972513;28;20236;-66
2021/12/14 04:27:01;;;;;;;31.30;11.60;;;;;;;6.03;100.00;101303.25;4972990;28;20062;-66
2021/12/14 04:29:27;;;;;;;22.73;10.07;;;;;;;6.06;100.00;101308.53;4975335;28;20027;-66
2021/12/14 04:31:52;;;;;;;19.55;8.90;;;;;;;6.07;100.00;101307.66;4976885;28;20490;-65
2021/12/14 04:34:19;;;;;;;26.55;9.02;;;;;;;6.08;100.00;101315.59;4972002;28;20034;-65
2021/12/14 04:36:51;;;;;;;20.33;9.32;;;;;;;6.08;100.00;101312.94;4994668;28;20029;-66
2021/12/14 04:53:11;;;;;;;19.40;9.15;;;;;;;6.44;100.00;101280.56;4986527;28;20045;-65
2021/12/14 04:55:42;;;;;;;22.23;9.10;;;;;;;6.61;100.00;101262.97;4977131;28;20123;-65
2021/12/14 04:58:08;;;;;;;24.75;10.50;;;;;;;6.62;100.00;101248.91;4971577;28;20034;-65
2021/12/14 05:00:52;;;;;;;24.45;10.13;;;;;;;6.68;100.00;101248.91;4979273;28;20372;-65
2021/12/14 05:03:27;;;;;;;27.15;10.15;;;;;;;6.63;100.00;101245.38;4971250;28;20498;-65
2021/12/14 05:06:09;;;;;;;24.75;9.82;;;;;;;6.67;100.00;101247.16;4976891;28;20592;-65
2021/12/14 05:11:09;;;;;;;24.67;10.45;;;;;;;6.70;100.00;101268.31;4971086;28;20121;-65
2021/12/14 05:13:42;;;;;;;30.13;11.45;;;;;;;6.73;100.00;101268.31;4973133;28;20077;-65
2021/12/14 05:16:09;;;;;;;23.40;9.20;;;;;;;6.71;100.00;101259.50;4990047;28;20046;-65
2021/12/14 05:18:35;;;;;;;29.42;10.50;;;;;;;6.73;100.00;101257.75;4990690;28;20030;-65
2021/12/14 05:21:01;;;;;;;38.65;11.40;;;;;;;6.69;100.00;101251.56;4981724;28;20027;-65
2021/12/14 05:23:32;;;;;;;31.45;9.43;;;;;;;6.79;100.00;101268.31;4990540;28;20018;-65
2021/12/14 05:26:02;;;;;;;27.13;10.70;;;;;;;6.68;100.00;101265.69;4990413;28;20029;-65
2021/12/14 05:28:28;;;;;;;25.15;9.18;;;;;;;6.57;100.00;101240.94;4990533;28;20022;-65
2021/12/14 05:30:57;;;;;;;27.27;11.13;;;;;;;6.67;100.00;101257.75;4983880;28;20037;-65
2021/12/14 05:33:27;;;;;;;27.60;9.20;;;;;;;6.67;100.00;101255.09;4990465;28;20041;-65
2021/12/14 05:35:58;;;;;;;32.05;10.00;;;;;;;6.60;100.00;101242.72;4984258;28;20041;-65
2021/12/14 05:38:41;;;;;;;18.85;7.55;;;;;;;6.48;100.00;101245.31;4987524;28;20367;-65
2021/12/14 05:43:05;;;;;;;21.67;7.57;;;;;;;6.49;100.00;101242.69;4985597;28;20115;-65
2021/12/14 05:43:57;;;;;;;16.42;7.68;;;;;;;6.54;100.00;101267.38;4987134;28;20572;-65
2021/12/14 05:46:23;;;;;;;18.67;7.15;;;;;;;6.58;100.00;101261.22;4975823;28;20498;-65
2021/12/14 05:48:57;;;;;;;20.35;8.48;;;;;;;6.61;100.00;101257.69;4973557;28;20101;-65
2021/12/14 05:51:23;;;;;;;18.92;7.32;;;;;;;6.51;100.00;101235.66;4975650;28;20034;-65
2021/12/14 05:53:51;;;;;;;23.48;9.60;;;;;;;6.56;100.00;101248.88;4971139;28;20045;-65
2021/12/14 05:56:20;;;;;;;29.70;8.88;;;;;;;6.58;100.00;101244.47;4978798;28;20026;-65
2021/12/14 05:58:48;;;;;;;24.45;8.95;;;;;;;6.61;100.00;101241.84;4989308;28;20509;-65
2021/12/14 06:01:17;;;;;;;20.63;8.60;;;;;;;6.52;100.00;101242.69;4984011;28;20039;-65
2021/12/14 06:03:56;;;;;;;20.92;8.43;;;;;;;6.55;100.00;101244.47;4976221;28;20426;-65
2021/12/14 06:06:29;;;;;;;18.75;7.35;;;;;;;6.57;100.00;101245.38;4974632;28;20050;-65
2021/12/14 06:09:28;;;;;;;19.02;8.75;;;;;;;6.53;100.00;101252.41;5003625;28;20041;-65
2021/12/14 06:11:58;;;;;;;20.88;8.50;;;;;;;6.57;100.00;101240.09;5013516;28;20033;-65
2021/12/14 06:14:27;;;;;;;24.58;8.77;;;;;;;6.56;100.00;101251.50;5014547;28;20054;-65
2021/12/14 06:17:03;;;;;;;21.67;9.45;;;;;;;6.56;100.00;101248.88;4992144;28;20069;-66
2021/12/14 06:19:35;;;;;;;19.58;8.85;;;;;;;6.63;100.00;101255.94;4974847;28;20039;-66
2021/12/14 06:22:05;;;;;;;20.52;8.38;;;;;;;6.69;100.00;101266.53;4977408;28;20031;-66
2021/12/14 06:24:34;;;;;;;32.33;9.05;;;;;;;6.69;100.00;101255.97;4979611;28;20043;-65
2021/12/14 06:27:02;;;;;;;253.32;78.93;;;;;;;6.66;100.00;101245.38;4973930;28;20031;-65
2021/12/14 06:29:32;;;;;;;166.48;66.70;;;;;;;6.65;100.00;101255.06;4975157;28;20027;-64
2021/12/14 06:32:09;;;;;;;61.53;31.73;;;;;;;6.67;100.00;101257.75;4983889;28;20077;-64
2021/12/14 06:34:42;;;;;;;39.15;17.58;;;;;;;6.65;100.00;101252.41;4994266;28;20592;-64
2021/12/14 06:40:20;;;;;;;32.40;14.68;;;;;;;6.66;100.00;101250.66;4968590;28;20046;-64
2021/12/14 06:42:51;;;;;;;31.73;12.93;;;;;;;6.66;100.00;101240.09;4979920;28;20391;-64
2021/12/14 06:45:26;;;;;;;31.60;10.88;;;;;;;6.65;100.00;101231.28;4973938;28;20105;-65
2021/12/14 06:47:57;;;;;;;31.92;11.77;;;;;;;6.65;100.00;101238.34;4995572;28;20111;-64
2021/12/14 06:50:30;;;;;;;31.42;11.35;;;;;;;6.60;100.00;101234.81;4984341;28;20030;-64
2021/12/14 06:52:59;;;;;;;30.57;11.40;;;;;;;6.59;100.00;101233.00;4984935;28;20042;-64
2021/12/14 06:55:26;;;;;;;30.25;12.05;;;;;;;6.63;100.00;101234.81;4992769;28;20686;-64
2021/12/14 06:57:52;;;;;;;31.58;11.85;;;;;;;6.68;100.00;101238.34;5000463;28;20029;-64
2021/12/14 07:00:19;;;;;;;30.13;13.45;;;;;;;6.73;100.00;101244.53;5004925;28;20497;-64
2021/12/14 07:02:50;;;;;;;26.02;11.88;;;;;;;6.75;100.00;101242.78;4983912;28;20667;-64
2021/12/14 07:05:25;;;;;;;44.13;13.98;;;;;;;6.70;100.00;101241.88;4972980;28;20026;-64
2021/12/14 07:07:51;;;;;;;29.25;12.32;;;;;;;6.60;100.00;101221.59;4980704;28;20442;-64
2021/12/14 07:10:18;;;;;;;30.65;11.95;;;;;;;6.64;100.00;101236.56;4972830;28;20031;-64
2021/12/14 07:12:44;;;;;;;36.17;13.57;;;;;;;6.60;100.00;101245.38;4977469;28;20078;-64
2021/12/14 07:15:18;;;;;;;29.58;11.82;;;;;;;6.51;100.00;101248.88;4975877;28;20051;-64
2021/12/14 07:17:48;;;;;;;;;;;;;;;6.43;100.00;101239.13;4973783;28;20482;-64
2021/12/14 07:20:13;;;;;;;28.77;10.93;;;;;;;6.47;100.00;101244.44;4973707;28;19969;-64
2021/12/14 07:22:45;;;;;;;24.65;10.68;;;;;;;6.51;100.00;101256.78;4987267;28;20418;-64
2021/12/14 07:25:20;;;;;;;31.23;11.20;;;;;;;6.60;100.00;101262.13;4977843;28;20033;-64
2021/12/14 07:27:58;;;;;;;31.17;12.15;;;;;;;6.59;100.00;101264.72;4977107;28;20598;-64
2021/12/14 07:30:36;;;;;;;38.50;15.73;;;;;;;6.52;100.00;101260.31;4973342;28;20030;-64
2021/12/14 07:33:31;;;;;;;29.40;11.02;;;;;;;6.61;100.00;101276.22;4986570;28;20084;-64
2021/12/14 07:36:09;;;;;;;31.80;12.40;;;;;;;6.69;100.00;101280.66;4988932;28;20053;-64
2021/12/14 07:38:40;;;;;;;34.25;11.98;;;;;;;6.68;100.00;101291.22;4979375;28;20031;-64
2021/12/14 07:41:12;;;;;;;27.90;12.13;;;;;;;6.69;100.00;101292.97;4973228;28;20657;-64
2021/12/14 07:43:43;;;;;;;32.28;12.57;;;;;;;6.67;100.00;101292.09;4973802;28;20019;-64
2021/12/14 07:46:39;;;;;;;27.63;10.35;;;;;;;6.68;100.00;101292.09;4975994;28;20549;-64
2021/12/14 07:49:18;;;;;;;26.23;10.23;;;;;;;6.63;100.00;101298.25;4987207;28;20037;-64
2021/12/14 07:51:47;;;;;;;35.90;14.98;;;;;;;6.65;100.00;101323.78;4992636;28;20030;-64
2021/12/14 07:54:17;;;;;;;33.03;13.35;;;;;;;6.67;100.00;101326.47;4993146;28;20087;-64
2021/12/14 07:56:44;;;;;;;37.10;13.50;;;;;;;6.70;100.00;101315.91;4977962;28;20034;-64
2021/12/14 07:59:25;;;;;;;35.50;14.85;;;;;;;6.61;100.00;101307.94;4972813;28;20033;-64
2021/12/14 08:02:07;;;;;;;39.55;13.80;;;;;;;6.57;100.00;101306.16;4977001;28;20069;-65
2021/12/14 08:04:35;;;;;;;36.60;14.65;;;;;;;6.55;100.00;101322.03;4972992;28;20102;-65
2021/12/14 08:07:01;;;;;;;33.38;12.77;;;;;;;6.57;100.00;101324.66;4972765;28;20030;-65
2021/12/14 08:09:49;;;;;;;31.58;12.13;;;;;;;6.58;100.00;101326.41;4972972;28;20074;-65
2021/12/14 08:12:28;;;;;;;32.58;11.60;;;;;;;6.62;100.00;101304.44;4991436;28;20029;-65
2021/12/14 08:15:03;;;;;;;29.98;11.75;;;;;;;6.65;100.00;101302.66;4991488;28;20057;-64
2021/12/14 08:17:28;;;;;;;31.27;13.13;;;;;;;6.47;100.00;101302.56;4992888;28;20062;-65
2021/12/14 08:19:54;;;;;;;23.13;10.90;;;;;;;6.43;100.00;101313.13;4989079;28;20061;-65
2021/12/14 08:22:34;;;;;;;33.65;13.43;;;;;;;6.45;100.00;101303.47;4979116;28;20027;-65
2021/12/14 08:25:01;;;;;;;31.48;13.38;;;;;;;6.50;100.00;101307.00;4972265;28;20026;-65
2021/12/14 08:27:29;;;;;;;27.38;11.35;;;;;;;6.53;100.00;101318.47;4974340;28;20754;-65
2021/12/14 08:29:59;;;;;;;25.88;12.48;;;;;;;6.58;100.00;101315.84;4991996;28;20026;-66
2021/12/14 08:32:30;;;;;;;33.75;14.70;;;;;;;6.55;100.00;101295.59;4990628;28;20030;-65
2021/12/14 08:34:59;;;;;;;34.70;14.93;;;;;;;6.54;100.00;101309.66;4983025;28;20031;-65
2021/12/14 08:37:54;;;;;;;27.00;12.40;;;;;;;6.64;100.00;101316.75;4992677;28;20118;-65
2021/12/14 08:40:29;;;;;;;27.00;12.52;;;;;;;6.70;100.00;101313.25;4972843;28;20035;-65
2021/12/14 08:45:33;;;;;;;33.22;18.23;;;;;;;6.65;100.00;101293.84;4977569;28;20066;-65
2021/12/14 08:48:01;;;;;;;29.30;13.77;;;;;;;6.69;100.00;101314.13;4972146;28;20023;-65
2021/12/14 08:50:28;;;;;;;28.25;11.65;;;;;;;6.73;100.00;101302.69;4982062;28;20540;-65
2021/12/14 08:52:53;;;;;;;31.83;13.55;;;;;;;6.85;100.00;101305.38;4989667;28;20128;-65
2021/12/14 08:55:22;;;;;;;33.03;13.55;;;;;;;6.82;100.00;101321.22;4991824;28;20130;-65
2021/12/14 08:57:51;;;;;;;27.27;13.25;;;;;;;6.84;100.00;101324.75;4991738;28;20084;-65
2021/12/14 09:00:30;;;;;;;30.70;12.30;;;;;;;6.67;100.00;101306.19;4990554;28;20033;-65
2021/12/14 09:03:00;;;;;;;29.75;13.45;;;;;;;6.69;100.00;101328.22;4989285;28;20038;-65
2021/12/14 09:05:32;;;;;;;33.42;16.75;;;;;;;6.85;100.00;101329.19;4971248;28;20027;-65
2021/12/14 09:07:59;;;;;;;29.88;14.55;;;;;;;6.83;100.00;101314.19;4984052;28;21844;-65
2021/12/14 09:10:28;;;;;;;34.45;15.70;;;;;;;6.89;100.00;101337.97;4972380;28;20089;-65
2021/12/14 09:12:59;;;;;;;32.90;15.35;;;;;;;6.86;100.00;101341.50;4974440;28;20033;-66
2021/12/14 09:15:43;;;;;;;40.63;17.25;;;;;;;6.86;100.00;101335.34;4985969;28;20170;-65
2021/12/14 09:18:10;;;;;;;45.58;21.95;;;;;;;6.91;100.00;101326.56;4990106;28;20478;-65
2021/12/14 09:20:42;;;;;;;37.40;15.73;;;;;;;6.93;100.00;101330.09;4981132;28;20030;-65
2021/12/14 09:23:16;;;;;;;29.70;13.88;;;;;;;6.93;100.00;101334.47;4993190;28;20072;-65
2021/12/14 09:25:42;;;;;;;33.08;14.35;;;;;;;6.85;100.00;101331.84;4981481;28;20114;-65
2021/12/14 09:28:09;;;;;;;32.92;12.88;;;;;;;6.97;100.00;101337.13;4976138;28;20061;-65
2021/12/14 09:30:43;;;;;;;33.15;14.38;;;;;;;7.00;100.00;101331.00;4973238;28;20502;-65
2021/12/14 09:33:09;;;;;;;31.92;14.18;;;;;;;6.89;100.00;101336.22;4983505;28;20023;-65
2021/12/14 09:35:35;;;;;;;34.92;14.70;;;;;;;6.86;100.00;101333.59;4990427;28;20034;-66
2021/12/14 09:38:03;;;;;;;30.50;14.02;;;;;;;6.81;100.00;101345.00;4989190;28;20157;-65
2021/12/14 09:40:36;;;;;;;31.13;15.77;;;;;;;6.75;100.00;101353.81;4993713;28;20030;-65
2021/12/14 09:43:02;;;;;;;34.00;15.45;;;;;;;6.73;100.00;101352.94;4992437;28;20053;-65
2021/12/14 09:45:34;;;;;;;35.60;14.10;;;;;;;6.69;100.00;101345.84;4991850;28;20041;-65
2021/12/14 09:48:02;;;;;;;35.85;16.40;;;;;;;6.56;100.00;101321.13;4994531;28;20510;-65
2021/12/14 09:50:32;;;;;;;34.58;15.82;;;;;;;6.70;100.00;101347.63;4984827;28;20367;-65
2021/12/14 09:52:59;;;;;;;34.53;14.82;;;;;;;6.74;100.00;101343.25;4993973;28;20397;-65
2021/12/14 09:55:29;;;;;;;32.67;14.85;;;;;;;6.79;100.00;101352.94;4986463;28;20026;-65
2021/12/14 09:58:00;;;;;;;38.40;16.58;;;;;;;6.83;100.00;101364.41;4980422;28;20513;-65
2021/12/14 10:00:35;;;;;;;38.00;15.00;;;;;;;6.85;100.00;101352.97;4974803;28;20376;-65
2021/12/14 10:03:03;;;;;;;33.60;15.30;;;;;;;6.96;100.00;101350.34;4993138;28;20033;-65
2021/12/14 10:05:54;;;;;;;36.97;17.05;;;;;;;7.04;100.00;101341.56;4993550;28;20026;-65
2021/12/14 10:08:26;;;;;;;40.53;16.75;;;;;;;7.12;100.00;101347.75;4982253;28;20089;-65
2021/12/14 10:11:04;;;;;;;37.25;16.00;;;;;;;7.14;100.00;101340.72;4986268;28;20030;-65
2021/12/14 10:13:32;;;;;;;35.92;18.30;;;;;;;7.07;100.00;101346.88;4993957;28;20510;-65
2021/12/14 10:16:01;;;;;;;30.92;15.50;;;;;;;7.06;100.00;101349.50;4990711;28;20109;-65
2021/12/14 10:18:31;;;;;;;34.67;15.43;;;;;;;7.15;100.00;101353.06;5007555;28;20045;-65
2021/12/14 10:21:03;;;;;;;37.75;16.20;;;;;;;7.29;100.00;101348.69;4992833;28;20379;-65
2021/12/14 10:23:31;;;;;;;35.22;16.17;;;;;;;7.47;100.00;101351.38;4985802;28;20174;-65
2021/12/14 10:25:57;;;;;;;37.70;19.08;;;;;;;7.76;100.00;101339.00;4988981;28;20109;-65
2021/12/14 10:28:25;;;;;;;54.85;26.58;;;;;;;8.05;100.00;101331.91;4993873;28;20037;-65
2021/12/14 10:30:58;;;;;;;47.42;22.92;;;;;;;8.32;100.00;101338.09;4992623;28;20073;-65
2021/12/14 10:33:26;;;;;;;39.53;20.50;;;;;;;8.70;98.42;101333.53;4991430;28;20040;-65
2021/12/14 10:35:58;;;;;;;41.35;20.05;;;;;;;8.74;94.59;101330.00;4993598;28;20296;-65
2021/12/14 10:38:30;;;;;;;58.90;29.02;;;;;;;8.55;92.98;101326.53;4994100;28;20037;-65
2021/12/14 10:43:47;;;;;;;36.83;18.20;;;;;;;8.61;92.50;101337.13;4994037;28;20446;-65
2021/12/14 10:46:37;;;;;;;37.55;19.20;;;;;;;8.69;92.54;101339.75;4988904;28;20497;-65
2021/12/14 10:49:03;;;;;;;49.63;26.08;;;;;;;8.68;93.00;101330.03;4993813;28;20022;-65
2021/12/14 10:51:37;;;;;;;29.27;15.90;;;;;;;8.54;91.11;101315.94;4992147;28;20026;-66
2021/12/14 10:54:04;;;;;;;;;;;;;;;8.39;90.90;101323.94;4993315;28;20041;-65
2021/12/14 10:56:57;;;;;;;33.22;15.30;;;;;;;8.28;89.50;101310.72;4986530;28;19928;-65
2021/12/14 10:59:30;;;;;;;36.10;16.48;;;;;;;8.40;91.46;101313.31;4973625;28;20039;-65
2021/12/14 11:01:56;;;;;;;32.17;15.35;;;;;;;8.48;91.34;101311.56;4986561;28;20676;-65
2021/12/14 11:04:37;;;;;;;30.55;17.70;;;;;;;8.58;92.09;101299.13;4983501;28;20101;-65
2021/12/14 11:07:06;;;;;;;28.80;15.30;;;;;;;8.66;91.18;101292.03;4989093;28;20144;-65
2021/12/14 11:12:27;;;;;;;29.67;14.90;;;;;;;8.76;90.82;101305.25;4992524;28;20030;-65
2021/12/14 11:15:07;;;;;;;31.23;14.93;;;;;;;9.12;91.82;101301.50;4993556;28;20112;-65
2021/12/14 11:20:36;;;;;;;32.08;18.95;;;;;;;9.50;88.17;101293.25;4992215;28;20073;-65
2021/12/14 11:23:09;;;;;;;;;;;;;;;9.54;86.32;101295.00;4983485;28;20014;-65
2021/12/14 11:25:40;;;;;;;27.90;15.48;;;;;;;9.62;85.89;101288.72;4991440;28;19914;-65
2021/12/14 11:28:13;;;;;;;31.25;16.85;;;;;;;9.59;84.95;101288.75;4988361;28;20398;-65
2021/12/14 11:31:01;;;;;;;23.88;13.38;;;;;;;9.74;83.66;101303.66;4989026;28;20065;-65
2021/12/14 11:33:29;;;;;;;29.02;13.02;;;;;;;10.04;83.88;101314.03;4989361;28;20035;-65
2021/12/14 11:36:12;;;;;;;28.30;14.52;;;;;;;10.32;83.05;101304.91;4990161;28;20123;-65
2021/12/14 11:38:47;;;;;;;23.98;12.13;;;;;;;10.30;81.13;101312.88;4985313;28;20026;-65
2021/12/14 11:41:21;;;;;;;22.33;12.40;;;;;;;10.21;81.95;101318.28;4993175;28;20022;-65
2021/12/14 11:44:08;;;;;;;;;;;;;;;10.07;80.33;101325.50;4982728;28;20058;-65
2021/12/14 11:47:04;;;;;;;34.90;18.10;;;;;;;9.79;82.15;101323.09;4992181;28;19916;-65
2021/12/14 11:50:04;;;;;;;37.58;22.15;;;;;;;9.84;82.99;101315.97;4985387;28;20386;-65
2021/12/14 11:52:51;;;;;;;22.55;13.55;;;;;;;9.84;83.73;101323.94;4986197;28;20509;-65
2021/12/14 11:55:21;;;;;;;23.92;12.85;;;;;;;9.91;84.27;101318.59;4992477;28;20502;-65
2021/12/14 11:57:47;;;;;;;22.38;12.10;;;;;;;9.97;83.65;101322.94;4988864;28;20026;-65
2021/12/14 12:00:22;;;;;;;22.95;12.40;;;;;;;10.08;84.60;101332.59;4985620;28;20030;-65
2021/12/14 12:02:48;;;;;;;22.40;13.20;;;;;;;10.09;83.43;101314.88;4991276;28;20081;-65
2021/12/14 12:05:26;;;;;;;22.80;12.93;;;;;;;10.07;82.69;101330.81;4988737;28;20482;-65
2021/12/14 12:10:47;;;;;;;28.00;14.00;;;;;;;10.35;81.32;101324.38;4981609;28;20121;-65
2021/12/14 12:13:12;;;;;;;19.98;11.50;;;;;;;10.42;81.57;101326.06;4976182;28;20514;-65
2021/12/14 12:15:42;;;;;;;23.63;12.85;;;;;;;10.30;81.67;101315.56;4973844;28;20046;-65
2021/12/14 12:18:08;;;;;;;23.33;12.25;;;;;;;10.42;80.43;101319.84;4985016;28;20038;-64